createdAt,value
2018-12-07T00:00:32.985Z,100874.95
2018-12-07T00:03:01.195Z,100862.31
2018-12-07T00:05:29.391Z,100866.44
2018-12-07T00:07:57.564Z,100860.60
2018-12-07T00:10:25.947Z,100865.86
2018-12-07T00:12:54.262Z,100866.52
2018-12-07T00:15:22.404Z,100864.94
2018-12-07T00:17:50.728Z,100867.37
2018-12-07T00:20:19.000Z,100863.30
2018-12-07T00:22:47.276Z,100855.31
2018-12-07T00:25:16.003Z,100862.08
2018-12-07T00:27:44.252Z,100850.55
2018-12-07T00:30:12.531Z,100858.67
2018-12-07T00:32:40.762Z,100857.34
2018-12-07T00:35:09.112Z,100852.82
2018-12-07T00:37:37.301Z,100846.87
2018-12-07T00:40:06.949Z,100847.72
2018-12-07T00:42:35.097Z,100842.61
2018-12-07T00:45:03.619Z,100845.26
2018-12-07T00:47:38.349Z,100836.98
2018-12-07T00:50:06.749Z,100844.04
2018-12-07T00:52:35.091Z,100839.70
2018-12-07T00:55:03.401Z,100836.45
2018-12-07T00:57:31.820Z,100834.67
2018-12-07T00:59:59.977Z,100834.49
2018-12-07T01:02:28.287Z,100828.62
2018-12-07T01:04:56.576Z,100834.67
2018-12-07T01:07:24.730Z,100839.67
2018-12-07T01:09:52.904Z,100835.62
2018-12-07T01:12:21.166Z,100838.27
2018-12-07T01:14:49.546Z,100821.45
2018-12-07T01:17:17.936Z,100824.87
2018-12-07T01:19:46.120Z,100816.94
2018-12-07T01:22:14.417Z,100817.56
2018-12-07T01:24:42.645Z,100818.80
2018-12-07T01:27:10.923Z,100815.79
2018-12-07T01:29:39.155Z,100813.73
2018-12-07T01:32:07.336Z,100804.21
2018-12-07T01:34:35.597Z,100813.95
2018-12-07T01:37:03.905Z,100814.66
2018-12-07T01:39:32.069Z,100815.05
2018-12-07T01:42:00.253Z,100810.34
2018-12-07T01:44:28.486Z,100810.50
2018-12-07T01:46:56.677Z,100809.07
2018-12-07T01:49:24.921Z,100798.81
2018-12-07T01:51:53.073Z,100802.78
2018-12-07T01:54:21.255Z,100808.92
2018-12-07T01:56:49.509Z,100804.00
2018-12-07T01:59:17.749Z,100802.30
2018-12-07T02:01:45.925Z,100805.61
2018-12-07T02:04:15.680Z,100804.29
2018-12-07T02:06:43.880Z,100801.83
2018-12-07T02:09:12.042Z,100799.19
2018-12-07T02:11:40.421Z,100802.05
2018-12-07T02:14:08.645Z,100802.30
2018-12-07T02:16:36.823Z,100800.40
2018-12-07T02:19:05.169Z,100800.51
2018-12-07T02:21:33.419Z,100801.64
2018-12-07T02:24:02.505Z,100802.41
2018-12-07T02:26:30.682Z,100794.48
2018-12-07T02:28:58.938Z,100793.71
2018-12-07T02:31:27.185Z,100792.79
2018-12-07T02:33:56.999Z,100791.47
2018-12-07T02:36:25.273Z,100785.78
2018-12-07T02:38:54.248Z,100788.53
2018-12-07T02:41:23.676Z,100795.03
2018-12-07T02:43:51.935Z,100794.48
2018-12-07T02:46:20.193Z,100787.58
2018-12-07T02:48:48.422Z,100779.75
2018-12-07T02:51:16.604Z,100777.22
2018-12-07T02:53:44.777Z,100774.09
2018-12-07T02:56:12.916Z,100771.08
2018-12-07T02:58:41.268Z,100771.45
2018-12-07T03:01:10.261Z,100774.68
2018-12-07T03:03:38.404Z,100762.78
2018-12-07T03:06:06.624Z,100760.72
2018-12-07T03:08:34.969Z,100763.73
2018-12-07T03:11:03.269Z,100763.73
2018-12-07T03:13:31.524Z,100766.37
2018-12-07T03:15:59.908Z,100772.41
2018-12-07T03:18:31.219Z,100777.91
2018-12-07T03:20:59.659Z,100765.53
2018-12-07T03:23:27.885Z,100757.12
2018-12-07T03:25:56.129Z,100757.12
2018-12-07T03:28:25.095Z,100751.46
2018-12-07T03:30:53.332Z,100747.39
2018-12-07T03:33:21.514Z,100746.55
2018-12-07T03:35:49.676Z,100745.95
2018-12-07T03:38:17.864Z,100744.27
2018-12-07T03:40:46.153Z,100741.14
2018-12-07T03:43:14.372Z,100740.67
2018-12-07T03:45:42.706Z,100735.37
2018-12-07T03:48:10.900Z,100736.85
2018-12-07T03:50:39.077Z,100736.34
2018-12-07T03:53:07.220Z,100747.28
2018-12-07T03:55:35.383Z,100744.05
2018-12-07T03:58:03.568Z,100741.70
2018-12-07T04:00:31.732Z,100737.55
2018-12-07T04:02:59.926Z,100740.92
2018-12-07T04:05:28.153Z,100737.44
2018-12-07T04:07:56.394Z,100737.44
2018-12-07T04:10:24.645Z,100730.83
2018-12-07T04:12:52.828Z,100732.88
2018-12-07T04:15:21.240Z,100726.67
2018-12-07T04:17:49.575Z,100732.99
2018-12-07T04:20:17.828Z,100726.02
2018-12-07T04:22:45.960Z,100722.64
2018-12-07T04:25:14.310Z,100724.22
2018-12-07T04:27:42.511Z,100732.99
2018-12-07T04:30:25.973Z,100728.77
2018-12-07T04:32:54.310Z,100723.08
2018-12-07T04:35:23.337Z,100723.27
2018-12-07T04:37:51.561Z,100720.98
2018-12-07T04:40:19.793Z,100718.52
2018-12-07T04:42:48.075Z,100715.98
2018-12-07T04:45:16.338Z,100710.95
2018-12-07T04:47:44.581Z,100709.85
2018-12-07T04:50:13.111Z,100705.89
2018-12-07T04:52:42.264Z,100702.88
2018-12-07T04:55:10.606Z,100699.09
2018-12-07T04:57:39.757Z,100697.95
2018-12-07T05:00:08.482Z,100693.22
2018-12-07T05:02:36.741Z,100695.67
2018-12-07T05:05:05.310Z,100692.44
2018-12-07T05:07:33.497Z,100693.55
2018-12-07T05:10:01.800Z,100691.48
2018-12-07T05:12:30.009Z,100688.47
2018-12-07T05:14:58.241Z,100690.53
2018-12-07T05:17:26.461Z,100691.12
2018-12-07T05:19:54.717Z,100677.26
2018-12-07T05:22:22.864Z,100675.98
2018-12-07T05:24:51.109Z,100683.44
2018-12-07T05:27:19.233Z,100685.16
2018-12-07T05:29:47.568Z,100685.42
2018-12-07T05:32:15.745Z,100682.97
2018-12-07T05:34:43.918Z,100681.27
2018-12-07T05:37:13.149Z,100675.80
2018-12-07T05:39:41.417Z,100668.89
2018-12-07T05:42:09.585Z,100662.76
2018-12-07T05:44:38.803Z,100665.41
2018-12-07T05:47:07.465Z,100659.56
2018-12-07T05:49:35.735Z,100664.84
2018-12-07T05:52:04.005Z,100660.11
2018-12-07T05:54:32.224Z,100653.50
2018-12-07T05:57:00.404Z,100652.95
2018-12-07T05:59:28.546Z,100659.16
2018-12-07T06:01:56.725Z,100656.99
2018-12-07T06:04:24.966Z,100654.63
2018-12-07T06:06:53.157Z,100650.30
2018-12-07T06:09:21.344Z,100651.63
2018-12-07T06:11:49.488Z,100650.86
2018-12-07T06:14:36.220Z,100637.08
2018-12-07T06:17:04.440Z,100645.02
2018-12-07T06:19:32.705Z,100640.28
2018-12-07T06:22:00.877Z,100637.92
2018-12-07T06:24:29.108Z,100636.68
2018-12-07T06:26:57.325Z,100633.11
2018-12-07T06:29:25.497Z,100632.71
2018-12-07T06:31:53.846Z,100626.10
2018-12-07T06:34:22.089Z,100619.30
2018-12-07T06:36:50.438Z,100615.33
2018-12-07T06:39:18.659Z,100611.36
2018-12-07T06:41:46.841Z,100613.64
2018-12-07T06:44:15.027Z,100606.91
2018-12-07T06:46:43.274Z,100605.95
2018-12-07T06:49:12.698Z,100610.63
2018-12-07T06:51:42.139Z,100607.03
2018-12-07T06:54:10.375Z,100600.92
2018-12-07T06:56:38.792Z,100600.55
2018-12-07T06:59:06.977Z,100597.13
2018-12-07T07:01:35.221Z,100597.91
2018-12-07T07:04:03.713Z,100592.62
2018-12-07T07:06:32.120Z,100592.00
2018-12-07T07:09:00.300Z,100586.00
2018-12-07T07:11:28.552Z,100583.59
2018-12-07T07:13:56.840Z,100580.23
2018-12-07T07:16:25.093Z,100571.09
2018-12-07T07:18:53.490Z,100574.95
2018-12-07T07:21:21.676Z,100568.81
2018-12-07T07:23:50.026Z,100570.30
2018-12-07T07:26:18.233Z,100559.36
2018-12-07T07:28:46.460Z,100554.44
2018-12-07T07:31:14.705Z,100549.14
2018-12-07T07:33:43.004Z,100549.34
2018-12-07T07:36:11.312Z,100541.94
2018-12-07T07:38:39.738Z,100539.29
2018-12-07T07:41:08.066Z,100535.92
2018-12-07T07:43:36.333Z,100538.92
2018-12-07T07:46:04.661Z,100534.73
2018-12-07T07:48:39.107Z,100528.70
2018-12-07T07:51:07.377Z,100528.11
2018-12-07T07:53:35.647Z,100520.30
2018-12-07T07:56:03.893Z,100518.48
2018-12-07T07:58:32.181Z,100515.48
2018-12-07T08:01:00.341Z,100508.14
2018-12-07T08:03:28.522Z,100507.80
2018-12-07T08:05:56.809Z,100507.31
2018-12-07T08:08:25.169Z,100499.02
2018-12-07T08:10:53.378Z,100499.13
2018-12-07T08:13:21.560Z,100488.59
2018-12-07T08:15:49.780Z,100485.19
2018-12-07T08:18:17.904Z,100485.19
2018-12-07T08:20:46.245Z,100487.48
2018-12-07T08:23:14.897Z,100488.95
2018-12-07T08:25:43.456Z,100484.14
2018-12-07T08:28:11.628Z,100474.41
2018-12-07T08:30:40.131Z,100474.05
2018-12-07T08:33:08.317Z,100469.31
2018-12-07T08:35:36.584Z,100465.75
2018-12-07T08:38:04.888Z,100463.59
2018-12-07T08:40:33.326Z,100463.71
2018-12-07T08:43:01.577Z,100463.95
2018-12-07T08:45:29.877Z,100469.61
2018-12-07T08:47:58.054Z,100465.52
2018-12-07T08:50:26.423Z,100455.66
2018-12-07T08:52:54.680Z,100448.31
2018-12-07T08:55:22.928Z,100449.76
2018-12-07T08:57:51.332Z,100443.50
2018-12-07T09:00:19.791Z,100436.17
2018-12-07T09:02:48.031Z,100438.94
2018-12-07T09:05:16.488Z,100435.93
2018-12-07T09:07:44.642Z,100418.01
2018-12-07T09:10:13.025Z,100425.83
2018-12-07T09:12:42.504Z,100423.78
2018-12-07T09:15:10.845Z,100421.26
2018-12-07T09:17:39.041Z,100414.05
2018-12-07T09:20:08.131Z,100400.45
2018-12-07T09:22:36.436Z,100402.30
2018-12-07T09:25:05.076Z,100401.30
2018-12-07T09:27:33.276Z,100400.61
2018-12-07T09:30:01.490Z,100393.28
2018-12-07T09:32:29.759Z,100394.59
2018-12-07T09:34:58.147Z,100389.06
2018-12-07T09:37:26.411Z,100386.66
2018-12-07T09:39:54.720Z,100385.42
2018-12-07T09:42:22.880Z,100378.81
2018-12-07T09:44:51.050Z,100380.25
2018-12-07T09:47:19.266Z,100383.17
2018-12-07T09:49:47.648Z,100377.16
2018-12-07T09:52:15.942Z,100378.72
2018-12-07T09:54:44.168Z,100371.36
2018-12-07T09:57:12.415Z,100365.70
2018-12-07T09:59:40.571Z,100362.58
2018-12-07T10:02:08.971Z,100362.22
2018-12-07T10:04:37.196Z,100355.13
2018-12-07T10:07:05.649Z,100345.02
2018-12-07T10:09:33.909Z,100346.10
2018-12-07T10:12:02.126Z,100339.70
2018-12-07T10:14:30.423Z,100324.58
2018-12-07T10:16:58.618Z,100322.89
2018-12-07T10:19:26.829Z,100326.27
2018-12-07T10:21:55.050Z,100318.33
2018-12-07T10:24:23.263Z,100306.78
2018-12-07T10:26:51.501Z,100302.81
2018-12-07T10:29:19.783Z,100297.28
2018-12-07T10:31:47.989Z,100289.59
2018-12-07T10:34:16.255Z,100293.31
2018-12-07T10:36:44.423Z,100279.12
2018-12-07T10:39:12.661Z,100274.20
2018-12-07T10:41:40.993Z,100267.82
2018-12-07T10:44:09.266Z,100269.29
2018-12-07T10:46:37.457Z,100263.13
2018-12-07T10:49:05.689Z,100255.55
2018-12-07T10:51:33.890Z,100254.84
2018-12-07T10:54:02.192Z,100246.06
2018-12-07T10:56:30.359Z,100241.73
2018-12-07T10:58:58.561Z,100232.36
2018-12-07T11:01:32.247Z,100226.09
2018-12-07T11:04:05.620Z,100215.52
2018-12-07T11:09:18.733Z,100206.97
2018-12-07T11:11:52.204Z,100198.34
2018-12-07T11:14:25.851Z,100192.56
2018-12-07T11:16:59.494Z,100184.00
2018-12-07T11:19:32.941Z,100182.95
2018-12-07T11:22:06.441Z,100181.23
2018-12-07T11:24:39.877Z,100175.23
2018-12-07T11:27:13.233Z,100159.36
2018-12-07T11:31:49.772Z,100157.19
2018-12-07T11:34:22.542Z,100144.33
2018-12-07T11:36:50.796Z,100138.19
2018-12-07T11:39:19.085Z,100136.05
2018-12-07T11:41:47.230Z,100132.55
2018-12-07T11:44:15.378Z,100112.59
2018-12-07T11:46:44.201Z,100113.78
2018-12-07T11:49:12.445Z,100111.13
2018-12-07T11:51:40.748Z,100103.33
2018-12-07T11:54:08.902Z,100101.65
2018-12-07T11:56:37.072Z,100090.81
2018-12-07T11:59:05.230Z,100076.88
2018-12-07T12:01:33.436Z,100082.30
2018-12-07T12:04:01.580Z,100068.94
2018-12-07T12:06:29.872Z,100070.62
2018-12-07T12:08:58.033Z,100055.84
2018-12-07T12:11:26.268Z,100055.13
2018-12-07T12:13:54.467Z,100001.39
2018-12-07T12:16:22.697Z,100048.38
2018-12-07T12:18:50.853Z,100039.25
2018-12-07T12:21:19.013Z,100030.83
2018-12-07T12:23:53.415Z,100022.51
2018-12-07T12:26:17.441Z,100016.51
2018-12-07T12:28:45.593Z,100015.89
2018-12-07T12:31:13.773Z,100022.77
2018-12-07T12:33:41.941Z,100021.67
2018-12-07T12:36:16.765Z,100005.92
2018-12-07T12:38:40.422Z,100006.28
2018-12-07T12:41:08.713Z,100001.95
2018-12-07T12:43:36.982Z,99996.67
2018-12-07T12:46:05.248Z,100003.50
2018-12-07T12:48:33.458Z,99998.47
2018-12-07T12:51:01.714Z,99990.53
2018-12-07T12:53:30.008Z,99984.77
2018-12-07T12:55:58.168Z,99974.80
2018-12-07T12:58:26.408Z,99977.09
2018-12-07T13:00:54.625Z,99972.63
2018-12-07T13:03:22.865Z,99968.66
2018-12-07T13:05:51.149Z,99962.53
2018-12-07T13:08:19.388Z,99963.95
2018-12-07T13:10:47.647Z,99953.99
2018-12-07T13:13:15.849Z,99951.95
2018-12-07T13:15:44.144Z,99942.70
2018-12-07T13:18:12.339Z,99941.99
2018-12-07T13:20:40.641Z,99938.86
2018-12-07T13:23:08.939Z,99932.34
2018-12-07T13:25:37.534Z,99926.70
2018-12-07T13:28:05.763Z,99913.83
2018-12-07T13:30:33.917Z,99901.71
2018-12-07T13:33:02.177Z,99900.61
2018-12-07T13:35:30.477Z,99901.22
2018-12-07T13:37:58.728Z,99889.58
2018-12-07T13:40:27.189Z,99907.61
2018-12-07T13:42:55.759Z,99899.67
2018-12-07T13:45:24.370Z,99879.84
2018-12-07T13:47:52.808Z,99872.00
2018-12-07T13:50:26.578Z,99878.86
2018-12-07T13:52:55.036Z,99878.86
2018-12-07T13:55:23.226Z,99865.36
2018-12-07T13:57:51.500Z,99858.05
2018-12-07T14:00:19.864Z,99860.44
2018-12-07T14:02:48.654Z,99860.08
2018-12-07T14:05:17.053Z,99856.67
2018-12-07T14:07:45.366Z,99849.73
2018-12-07T14:10:13.761Z,99853.59
2018-12-07T14:12:42.069Z,99841.79
2018-12-07T14:15:10.648Z,99842.52
2018-12-07T14:17:39.012Z,99838.22
2018-12-07T14:20:08.198Z,99832.58
2018-12-07T14:22:36.446Z,99824.24
2018-12-07T14:25:05.060Z,99825.08
2018-12-07T14:27:33.568Z,99821.27
2018-12-07T14:30:01.820Z,99812.00
2018-12-07T14:32:30.235Z,99814.30
2018-12-07T14:34:58.571Z,99803.28
2018-12-07T14:37:26.766Z,99803.28
2018-12-07T14:39:55.048Z,99800.15
2018-12-07T14:42:23.348Z,99796.31
2018-12-07T14:44:51.601Z,99795.09
2018-12-07T14:47:20.041Z,99794.61
2018-12-07T14:49:48.518Z,99789.23
2018-12-07T14:52:16.862Z,99782.00
2018-12-07T14:54:45.252Z,99777.82
2018-12-07T14:57:13.613Z,99776.62
2018-12-07T14:59:41.950Z,99770.26
2018-12-07T15:02:10.242Z,99765.31
2018-12-07T15:04:38.462Z,99763.28
2018-12-07T15:07:06.779Z,99749.70
2018-12-07T15:09:35.003Z,99732.20
2018-12-07T15:12:03.385Z,99730.01
2018-12-07T15:14:31.625Z,99734.91
2018-12-07T15:16:59.993Z,99731.41
2018-12-07T15:19:28.278Z,99727.45
2018-12-07T15:21:56.675Z,99729.52
2018-12-07T15:24:25.054Z,99728.77
2018-12-07T15:26:53.339Z,99718.19
2018-12-07T15:29:21.988Z,99723.39
2018-12-07T15:31:50.395Z,99718.55
2018-12-07T15:34:19.036Z,99710.61
2018-12-07T15:36:49.026Z,99694.05
2018-12-07T15:39:17.547Z,99695.36
2018-12-07T15:41:45.940Z,99685.89
2018-12-07T15:44:14.476Z,99678.34
2018-12-07T15:46:43.116Z,99668.73
2018-12-07T15:49:11.658Z,99668.25
2018-12-07T15:51:39.979Z,99661.84
2018-12-07T15:54:08.292Z,99657.80
2018-12-07T15:56:36.574Z,99657.45
2018-12-07T15:59:04.878Z,99651.55
2018-12-07T16:01:33.363Z,99647.84
2018-12-07T16:04:01.830Z,99645.42
2018-12-07T16:06:30.230Z,99650.11
2018-12-07T16:08:58.485Z,99638.22
2018-12-07T16:11:26.970Z,99633.39
2018-12-07T16:13:55.271Z,99627.40
2018-12-07T16:16:23.596Z,99635.12
2018-12-07T16:18:51.902Z,99628.05
2018-12-07T16:21:20.337Z,99622.55
2018-12-07T16:23:48.822Z,99625.30
2018-12-07T16:26:17.296Z,99614.97
2018-12-07T16:28:45.634Z,99602.96
2018-12-07T16:31:13.911Z,99594.89
2018-12-07T16:33:42.369Z,99593.36
2018-12-07T16:36:10.838Z,99585.43
2018-12-07T16:38:39.162Z,99580.98
2018-12-07T16:41:07.446Z,99571.03
2018-12-07T16:43:35.822Z,99569.02
2018-12-07T16:46:04.344Z,99564.28
2018-12-07T16:48:32.604Z,99557.60
2018-12-07T16:51:00.994Z,99551.94
2018-12-07T16:53:31.096Z,99546.78
2018-12-07T16:55:59.534Z,99541.98
2018-12-07T16:58:27.782Z,99535.86
2018-12-07T17:00:56.129Z,99526.13
2018-12-07T17:03:24.417Z,99528.28
2018-12-07T17:05:52.802Z,99521.78
2018-12-07T17:08:21.274Z,99518.30
2018-12-07T17:10:49.929Z,99513.89
2018-12-07T17:13:18.255Z,99517.36
2018-12-07T17:15:46.555Z,99503.31
2018-12-07T17:18:14.817Z,99501.78
2018-12-07T17:20:43.284Z,99504.98
2018-12-07T17:23:12.696Z,99491.59
2018-12-07T17:25:41.411Z,99488.64
2018-12-07T17:28:09.905Z,99481.79
2018-12-07T17:30:38.534Z,99478.42
2018-12-07T17:33:07.256Z,99473.62
2018-12-07T17:35:35.569Z,99467.73
2018-12-07T17:38:03.939Z,99461.03
2018-12-07T17:40:32.345Z,99459.70
2018-12-07T17:43:00.899Z,99455.84
2018-12-07T17:48:22.236Z,99434.74
2018-12-07T17:50:50.683Z,99435.23
2018-12-07T17:53:18.900Z,99428.97
2018-12-07T17:55:47.381Z,99426.95
2018-12-07T17:58:15.782Z,99419.03
2018-12-07T18:00:44.214Z,99414.58
2018-12-07T18:03:12.358Z,99415.13
2018-12-07T18:05:40.754Z,99406.65
2018-12-07T18:08:09.110Z,99409.43
2018-12-07T18:10:37.699Z,99400.53
2018-12-07T18:13:06.078Z,99395.94
2018-12-07T18:15:34.484Z,99387.03
2018-12-07T18:18:02.798Z,99389.95
2018-12-07T18:20:31.272Z,99383.11
2018-12-07T18:22:59.689Z,99388.54
2018-12-07T18:25:28.083Z,99381.20
2018-12-07T18:27:56.552Z,99368.09
2018-12-07T18:30:25.126Z,99362.11
2018-12-07T18:32:53.388Z,99361.05
2018-12-07T18:35:22.097Z,99354.63
2018-12-07T18:37:50.451Z,99351.30
2018-12-07T18:40:18.982Z,99338.93
2018-12-07T18:42:47.283Z,99343.17
2018-12-07T18:45:15.934Z,99337.16
2018-12-07T18:47:44.365Z,99333.20
2018-12-07T18:50:12.592Z,99320.77
2018-12-07T18:52:41.749Z,99327.58
2018-12-07T18:55:10.686Z,99321.59
2018-12-07T18:57:39.363Z,99312.55
2018-12-07T19:00:08.949Z,99315.27
2018-12-07T19:02:37.514Z,99312.30
2018-12-07T19:05:06.030Z,99310.49
2018-12-07T19:07:34.202Z,99308.29
2018-12-07T19:10:02.700Z,99303.64
2018-12-07T19:12:31.016Z,99302.22
2018-12-07T19:14:59.569Z,99287.88
2018-12-07T19:17:28.224Z,99283.73
2018-12-07T19:19:56.582Z,99280.79
2018-12-07T19:22:25.081Z,99281.09
2018-12-07T19:24:53.820Z,99273.84
2018-12-07T19:27:22.378Z,99280.00
2018-12-07T19:29:51.000Z,99273.76
2018-12-07T19:32:19.585Z,99261.23
2018-12-07T19:34:49.872Z,99251.09
2018-12-07T19:37:18.199Z,99250.65
2018-12-07T19:39:46.615Z,99248.10
2018-12-07T19:42:15.005Z,99237.69
2018-12-07T19:44:43.360Z,99236.22
2018-12-07T19:47:11.740Z,99237.34
2018-12-07T19:49:40.365Z,99234.95
2018-12-07T19:52:09.006Z,99241.50
2018-12-07T19:54:37.717Z,99235.49
2018-12-07T19:57:06.217Z,99226.97
2018-12-07T19:59:34.834Z,99230.15
2018-12-07T20:02:04.104Z,99231.91
2018-12-07T20:04:32.408Z,99229.17
2018-12-07T20:07:00.884Z,99224.87
2018-12-07T20:09:29.649Z,99220.22
2018-12-07T20:11:58.420Z,99221.11
2018-12-07T20:14:26.905Z,99227.41
2018-12-07T20:16:55.343Z,99221.88
2018-12-07T20:19:23.942Z,99233.42
2018-12-07T20:21:52.169Z,99280.68
2018-12-07T20:24:20.686Z,99331.53
2018-12-07T20:26:49.050Z,99326.34
2018-12-07T20:29:17.378Z,99333.91
2018-12-07T20:31:45.761Z,99325.16
2018-12-07T20:34:14.192Z,99336.45
2018-12-07T20:36:42.601Z,99333.48
2018-12-07T20:39:11.535Z,99333.47
2018-12-07T20:41:39.771Z,99343.76
2018-12-07T20:44:08.223Z,99346.05
2018-12-07T20:46:36.744Z,99351.57
2018-12-07T20:49:05.877Z,99347.36
2018-12-07T20:51:34.281Z,99350.48
2018-12-07T20:54:02.626Z,99369.05
2018-12-07T20:56:31.559Z,99375.89
2018-12-07T20:59:00.190Z,99392.75
2018-12-07T21:01:28.850Z,99396.59
2018-12-07T21:05:06.542Z,99415.74
2018-12-07T21:07:50.957Z,99414.44
2018-12-07T21:10:57.365Z,99423.52
2018-12-07T21:14:34.751Z,99415.25
2018-12-07T21:17:17.675Z,99438.22
2018-12-07T21:20:48.899Z,99447.89
2018-12-07T21:23:17.923Z,99465.70
2018-12-07T21:25:52.494Z,99468.84
2018-12-07T21:28:21.707Z,99474.31
2018-12-07T21:30:55.917Z,99481.58
2018-12-07T21:33:34.899Z,99491.27
2018-12-07T21:39:02.546Z,99495.76
2018-12-07T21:41:31.264Z,99456.17
2018-12-07T21:43:59.601Z,99511.86
2018-12-07T21:46:28.134Z,99508.28
2018-12-07T21:48:56.606Z,99510.16
2018-12-07T21:52:37.364Z,99517.56
2018-12-07T21:55:06.308Z,99522.74
2018-12-07T21:57:34.680Z,99532.46
2018-12-07T22:00:03.086Z,99538.63
2018-12-07T22:02:31.811Z,99539.91
2018-12-07T22:05:00.114Z,99555.19
2018-12-07T22:07:28.417Z,99556.31
2018-12-07T22:09:56.894Z,99557.58
2018-12-07T22:12:25.166Z,99564.34
2018-12-07T22:14:53.924Z,99570.45
2018-12-07T22:17:22.282Z,99572.27
2018-12-07T22:19:50.822Z,99575.13
2018-12-07T22:22:19.774Z,99582.42
2018-12-07T22:24:48.565Z,99588.17
2018-12-07T22:27:16.901Z,99599.91
2018-12-07T22:29:45.238Z,99596.34
2018-12-07T22:32:14.147Z,99590.27
2018-12-07T22:34:42.755Z,99595.69
2018-12-07T22:37:11.377Z,99602.31
2018-12-07T22:39:39.764Z,99593.18
2018-12-07T22:42:08.247Z,99600.11
2018-12-07T22:44:37.372Z,99589.09
2018-12-07T22:47:06.269Z,99599.19
2018-12-07T22:49:34.911Z,99597.06
2018-12-07T22:52:03.454Z,99602.55
2018-12-07T22:54:31.711Z,99600.45
2018-12-07T22:57:00.284Z,99608.02
2018-12-07T22:59:28.483Z,99617.52
2018-12-07T23:01:57.039Z,99622.84
2018-12-07T23:04:26.030Z,99612.37
2018-12-07T23:06:54.657Z,99628.82
2018-12-07T23:09:22.982Z,99625.07
2018-12-07T23:11:51.126Z,99634.49
2018-12-07T23:14:19.259Z,99636.85
2018-12-07T23:16:54.134Z,99636.98
2018-12-07T23:19:22.361Z,99643.95
2018-12-07T23:21:50.608Z,99648.36
2018-12-07T23:24:19.076Z,99659.41
2018-12-07T23:26:47.377Z,99647.94
2018-12-07T23:29:21.449Z,99666.56
2018-12-07T23:31:49.926Z,99666.24
2018-12-07T23:34:18.355Z,99667.88
2018-12-07T23:36:46.569Z,99684.00
2018-12-07T23:39:14.713Z,99689.27
2018-12-07T23:41:42.989Z,99696.41
2018-12-07T23:44:11.177Z,99695.58
2018-12-07T23:46:39.535Z,99690.84
2018-12-07T23:49:07.652Z,99692.52
2018-12-07T23:51:35.978Z,99691.08
2018-12-07T23:54:04.246Z,99712.18
2018-12-07T23:56:32.556Z,99714.16
2018-12-07T23:59:00.776Z,99709.33
